sensor_id;sensor_type;location;lat;lon;timestamp;pressure;altitude;pressure_sealevel;temperature;humidity
72086;BME280;64750;52.134;5.424;2022-12-18T00:01:05;103039.00;;;2.70;66.16
72086;BME280;64750;52.134;5.424;2022-12-18T00:03:35;103037.22;;;2.64;66.06
72086;BME280;64750;52.134;5.424;2022-12-18T00:06:05;103036.31;;;2.60;66.48
72086;BME280;64750;52.134;5.424;2022-12-18T00:08:32;103030.22;;;2.58;66.05
72086;BME280;64750;52.134;5.424;2022-12-18T00:11:16;103018.16;;;2.63;66.01
72086;BME280;64750;52.134;5.424;2022-12-18T00:13:43;103016.47;;;2.66;65.98
72086;BME280;64750;52.134;5.424;2022-12-18T00:16:12;103013.88;;;2.67;65.94
72086;BME280;64750;52.134;5.424;2022-12-18T00:18:40;103024.25;;;2.67;65.96
72086;BME280;64750;52.134;5.424;2022-12-18T00:21:09;103023.41;;;2.67;66.03
72086;BME280;64750;52.134;5.424;2022-12-18T00:23:37;103021.66;;;2.67;66.34
72086;BME280;64750;52.134;5.424;2022-12-18T00:26:07;103025.13;;;2.68;65.78
72086;BME280;64750;52.134;5.424;2022-12-18T00:28:33;103025.09;;;2.66;65.83
72086;BME280;64750;52.134;5.424;2022-12-18T00:31:04;103028.56;;;2.65;66.35
72086;BME280;64750;52.134;5.424;2022-12-18T00:33:32;103024.19;;;2.61;66.30
72086;BME280;64750;52.134;5.424;2022-12-18T00:36:07;103018.16;;;2.62;65.90
72086;BME280;64750;52.134;5.424;2022-12-18T00:38:35;103016.41;;;2.62;66.45
72086;BME280;64750;52.134;5.424;2022-12-18T00:41:03;103025.94;;;2.62;66.38
72086;BME280;64750;52.134;5.424;2022-12-18T00:43:30;103013.81;;;2.61;65.89
72086;BME280;64750;52.134;5.424;2022-12-18T00:45:56;103017.25;;;2.60;66.09
72086;BME280;64750;52.134;5.424;2022-12-18T00:48:23;103019.84;;;2.60;66.27
72086;BME280;64750;52.134;5.424;2022-12-18T00:50:50;103020.75;;;2.62;66.10
72086;BME280;64750;52.134;5.424;2022-12-18T00:53:17;103019.88;;;2.61;65.90
72086;BME280;64750;52.134;5.424;2022-12-18T00:55:44;103024.19;;;2.59;66.24
72086;BME280;64750;52.134;5.424;2022-12-18T00:58:13;103017.25;;;2.58;65.75
72086;BME280;64750;52.134;5.424;2022-12-18T01:00:40;103013.81;;;2.58;66.00
72086;BME280;64750;52.134;5.424;2022-12-18T01:03:07;103019.84;;;2.58;66.29
72086;BME280;64750;52.134;5.424;2022-12-18T01:05:33;103012.91;;;2.57;65.97
72086;BME280;64750;52.134;5.424;2022-12-18T01:08:00;102997.31;;;2.53;66.29
72086;BME280;64750;52.134;5.424;2022-12-18T01:10:27;103005.09;;;2.53;65.89
72086;BME280;64750;52.134;5.424;2022-12-18T01:12:53;103003.31;;;2.49;65.78
72086;BME280;64750;52.134;5.424;2022-12-18T01:15:20;103006.75;;;2.46;65.67
72086;BME280;64750;52.134;5.424;2022-12-18T01:17:46;103006.75;;;2.44;65.93
72086;BME280;64750;52.134;5.424;2022-12-18T01:20:13;103007.63;;;2.45;65.82
72086;BME280;64750;52.134;5.424;2022-12-18T01:22:40;103011.94;;;2.44;66.15
72086;BME280;64750;52.134;5.424;2022-12-18T01:25:08;103017.97;;;2.43;65.92
72086;BME280;64750;52.134;5.424;2022-12-18T01:27:35;103013.63;;;2.39;65.61
72086;BME280;64750;52.134;5.424;2022-12-18T01:30:02;103027.44;;;2.37;66.17
72086;BME280;64750;52.134;5.424;2022-12-18T01:32:31;103032.63;;;2.37;65.88
72086;BME280;64750;52.134;5.424;2022-12-18T01:34:57;103041.25;;;2.34;66.02
72086;BME280;64750;52.134;5.424;2022-12-18T01:37:24;103032.63;;;2.35;66.15
72086;BME280;64750;52.134;5.424;2022-12-18T01:39:52;103036.97;;;2.35;65.39
72086;BME280;64750;52.134;5.424;2022-12-18T01:42:21;103035.22;;;2.37;66.19
72086;BME280;64750;52.134;5.424;2022-12-18T01:49:57;103037.81;;;2.35;65.90
72086;BME280;64750;52.134;5.424;2022-12-18T01:52:31;103036.06;;;2.34;66.16
72086;BME280;64750;52.134;5.424;2022-12-18T01:55:00;103035.16;;;2.30;65.58
72086;BME280;64750;52.134;5.424;2022-12-18T01:57:28;103031.72;;;2.32;65.74
72086;BME280;64750;52.134;5.424;2022-12-18T01:59:59;103031.72;;;2.32;65.65
72086;BME280;64750;52.134;5.424;2022-12-18T02:02:28;103033.44;;;2.29;65.75
72086;BME280;64750;52.134;5.424;2022-12-18T02:04:55;103043.84;;;2.31;65.48
72086;BME280;64750;52.134;5.424;2022-12-18T02:10:15;103043.81;;;2.29;65.94
72086;BME280;64750;52.134;5.424;2022-12-18T02:12:49;103048.13;;;2.27;65.83
72086;BME280;64750;52.134;5.424;2022-12-18T02:15:27;103039.44;;;2.25;65.74
72086;BME280;64750;52.134;5.424;2022-12-18T02:18:07;103036.84;;;2.25;65.54
72086;BME280;64750;52.134;5.424;2022-12-18T02:20:39;103035.13;;;2.24;65.58
72086;BME280;64750;52.134;5.424;2022-12-18T02:28:36;103047.19;;;2.22;65.48
72086;BME280;64750;52.134;5.424;2022-12-18T02:31:08;103048.91;;;2.20;65.29
72086;BME280;64750;52.134;5.424;2022-12-18T02:33:37;103047.19;;;2.21;65.72
72086;BME280;64750;52.134;5.424;2022-12-18T02:36:07;103044.59;;;2.21;65.69
72086;BME280;64750;52.134;5.424;2022-12-18T02:38:35;103031.59;;;2.19;65.71
72086;BME280;64750;52.134;5.424;2022-12-18T02:41:03;103033.34;;;2.20;65.30
72086;BME280;64750;52.134;5.424;2022-12-18T02:43:30;103047.19;;;2.21;65.21
72086;BME280;64750;52.134;5.424;2022-12-18T02:45:59;103028.13;;;2.19;65.41
72086;BME280;64750;52.134;5.424;2022-12-18T02:48:33;103016.00;;;2.16;65.69
72086;BME280;64750;52.134;5.424;2022-12-18T02:51:03;103020.34;;;2.17;65.95
72086;BME280;64750;52.134;5.424;2022-12-18T02:53:43;103024.63;;;2.15;65.15
72086;BME280;64750;52.134;5.424;2022-12-18T02:56:16;103020.34;;;2.16;65.00
72086;BME280;64750;52.134;5.424;2022-12-18T03:01:21;103016.84;;;2.13;65.05
72086;BME280;64750;52.134;5.424;2022-12-18T03:04:02;103016.84;;;2.12;65.45
72086;BME280;64750;52.134;5.424;2022-12-18T03:06:35;103015.09;;;2.11;65.23
72086;BME280;64750;52.134;5.424;2022-12-18T03:09:14;103005.56;;;2.10;65.33
72086;BME280;64750;52.134;5.424;2022-12-18T03:11:46;103006.44;;;2.10;65.08
72086;BME280;64750;52.134;5.424;2022-12-18T03:14:36;102998.63;;;2.09;65.33
72086;BME280;64750;52.134;5.424;2022-12-18T03:17:08;103000.34;;;2.05;65.09
72086;BME280;64750;52.134;5.424;2022-12-18T03:19:37;103000.31;;;2.04;65.77
72086;BME280;64750;52.134;5.424;2022-12-18T03:22:06;103003.78;;;2.04;65.19
72086;BME280;64750;52.134;5.424;2022-12-18T03:24:35;102992.53;;;2.04;64.99
72086;BME280;64750;52.134;5.424;2022-12-18T03:27:10;102994.25;;;2.03;65.62
72086;BME280;64750;52.134;5.424;2022-12-18T03:29:41;102988.22;;;2.03;65.36
72086;BME280;64750;52.134;5.424;2022-12-18T03:32:20;102993.41;;;2.03;65.70
72086;BME280;64750;52.134;5.424;2022-12-18T03:34:50;102982.13;;;2.01;65.59
72086;BME280;64750;52.134;5.424;2022-12-18T03:37:18;102976.94;;;1.99;65.69
72086;BME280;64750;52.134;5.424;2022-12-18T03:39:44;102980.38;;;1.98;65.32
72086;BME280;64750;52.134;5.424;2022-12-18T03:42:28;102977.78;;;1.98;65.32
72086;BME280;64750;52.134;5.424;2022-12-18T03:45:04;102971.75;;;1.99;65.29
72086;BME280;64750;52.134;5.424;2022-12-18T03:47:41;102964.81;;;2.00;64.96
72086;BME280;64750;52.134;5.424;2022-12-18T03:52:46;102969.16;;;1.99;65.50
72086;BME280;64750;52.134;5.424;2022-12-18T03:55:16;102966.56;;;1.99;65.47
72086;BME280;64750;52.134;5.424;2022-12-18T03:57:45;102965.72;;;2.02;65.34
72086;BME280;64750;52.134;5.424;2022-12-18T04:00:16;102965.72;;;2.02;65.48
72086;BME280;64750;52.134;5.424;2022-12-18T04:02:46;102960.53;;;2.02;65.19
72086;BME280;64750;52.134;5.424;2022-12-18T04:05:15;102969.16;;;2.01;65.36
72086;BME280;64750;52.134;5.424;2022-12-18T04:07:44;102962.28;;;2.03;65.52
72086;BME280;64750;52.134;5.424;2022-12-18T04:10:12;102957.94;;;2.05;65.18
72086;BME280;64750;52.134;5.424;2022-12-18T04:12:39;102956.22;;;2.04;65.03
72086;BME280;64750;52.134;5.424;2022-12-18T04:15:06;102947.56;;;2.02;65.27
72086;BME280;64750;52.134;5.424;2022-12-18T04:17:33;102941.53;;;2.03;65.23
72086;BME280;64750;52.134;5.424;2022-12-18T04:19:59;102938.94;;;2.03;65.04
72086;BME280;64750;52.134;5.424;2022-12-18T04:22:26;102936.34;;;2.04;65.55
72086;BME280;64750;52.134;5.424;2022-12-18T04:24:53;102935.50;;;2.05;65.35
72086;BME280;64750;52.134;5.424;2022-12-18T04:27:19;102936.34;;;2.06;65.34
72086;BME280;64750;52.134;5.424;2022-12-18T04:29:46;102936.34;;;2.06;65.25
72086;BME280;64750;52.134;5.424;2022-12-18T04:32:13;102937.19;;;2.05;65.39
72086;BME280;64750;52.134;5.424;2022-12-18T04:34:39;102930.28;;;2.04;65.11
72086;BME280;64750;52.134;5.424;2022-12-18T04:37:06;102932.91;;;2.07;65.59
72086;BME280;64750;52.134;5.424;2022-12-18T04:39:32;102936.34;;;2.06;65.21
72086;BME280;64750;52.134;5.424;2022-12-18T04:41:59;102932.06;;;2.09;64.96
72086;BME280;64750;52.134;5.424;2022-12-18T04:44:26;102939.84;;;2.09;65.37
72086;BME280;64750;52.134;5.424;2022-12-18T04:46:52;102949.34;;;2.09;65.22
72086;BME280;64750;52.134;5.424;2022-12-18T04:49:19;102956.25;;;2.08;65.22
72086;BME280;64750;52.134;5.424;2022-12-18T04:51:46;102954.50;;;2.07;65.33
72086;BME280;64750;52.134;5.424;2022-12-18T04:54:13;102964.06;;;2.10;65.35
72086;BME280;64750;52.134;5.424;2022-12-18T04:56:39;102966.66;;;2.11;65.35
72086;BME280;64750;52.134;5.424;2022-12-18T04:59:06;102969.28;;;2.13;65.14
72086;BME280;64750;52.134;5.424;2022-12-18T05:01:33;102975.34;;;2.15;65.17
72086;BME280;64750;52.134;5.424;2022-12-18T05:04:01;102971.88;;;2.15;65.25
72086;BME280;64750;52.134;5.424;2022-12-18T05:06:28;102972.75;;;2.15;64.51
72086;BME280;64750;52.134;5.424;2022-12-18T05:08:55;102982.28;;;2.16;65.21
72086;BME280;64750;52.134;5.424;2022-12-18T05:11:21;102984.88;;;2.16;64.47
72086;BME280;64750;52.134;5.424;2022-12-18T05:13:50;102985.72;;;2.17;64.61
72086;BME280;64750;52.134;5.424;2022-12-18T05:16:17;102984.00;;;2.16;64.68
72086;BME280;64750;52.134;5.424;2022-12-18T05:18:46;102985.72;;;2.17;64.97
72086;BME280;64750;52.134;5.424;2022-12-18T05:21:12;102994.41;;;2.19;64.73
72086;BME280;64750;52.134;5.424;2022-12-18T05:23:39;102999.59;;;2.19;64.70
72086;BME280;64750;52.134;5.424;2022-12-18T05:26:07;102989.22;;;2.20;64.69
72086;BME280;64750;52.134;5.424;2022-12-18T05:28:36;103003.09;;;2.22;64.91
72086;BME280;64750;52.134;5.424;2022-12-18T05:31:04;103006.53;;;2.23;64.60
72086;BME280;64750;52.134;5.424;2022-12-18T05:33:33;103017.81;;;2.23;64.72
72086;BME280;64750;52.134;5.424;2022-12-18T05:36:01;103011.78;;;2.24;64.67
72086;BME280;64750;52.134;5.424;2022-12-18T05:38:29;103012.63;;;2.25;64.80
72086;BME280;64750;52.134;5.424;2022-12-18T05:40:57;103001.41;;;2.24;64.81
72086;BME280;64750;52.134;5.424;2022-12-18T05:43:24;103002.25;;;2.26;64.27
72086;BME280;64750;52.134;5.424;2022-12-18T05:45:52;102989.28;;;2.26;64.09
72086;BME280;64750;52.134;5.424;2022-12-18T05:48:19;102984.09;;;2.25;64.22
72086;BME280;64750;52.134;5.424;2022-12-18T05:50:47;102986.69;;;2.23;64.23
72086;BME280;64750;52.134;5.424;2022-12-18T05:53:18;102979.75;;;2.24;64.39
72086;BME280;64750;52.134;5.424;2022-12-18T05:55:48;102977.16;;;2.24;64.36
72086;BME280;64750;52.134;5.424;2022-12-18T05:58:18;102974.56;;;2.24;64.41
72086;BME280;64750;52.134;5.424;2022-12-18T06:00:45;102977.16;;;2.22;64.00
72086;BME280;64750;52.134;5.424;2022-12-18T06:03:13;102969.34;;;2.21;64.06
72086;BME280;64750;52.134;5.424;2022-12-18T06:05:44;102970.19;;;2.18;63.90
72086;BME280;64750;52.134;5.424;2022-12-18T06:08:15;102974.50;;;2.19;64.50
72086;BME280;64750;52.134;5.424;2022-12-18T06:10:49;102973.66;;;2.19;64.57
72086;BME280;64750;52.134;5.424;2022-12-18T06:13:17;102964.13;;;2.19;64.14
72086;BME280;64750;52.134;5.424;2022-12-18T06:15:44;102957.25;;;2.20;63.59
72086;BME280;64750;52.134;5.424;2022-12-18T06:18:10;102957.22;;;2.18;64.30
72086;BME280;64750;52.134;5.424;2022-12-18T06:20:37;102958.94;;;2.19;63.99
72086;BME280;64750;52.134;5.424;2022-12-18T06:23:06;102952.00;;;2.17;64.01
72086;BME280;64750;52.134;5.424;2022-12-18T06:25:36;102954.59;;;2.17;64.27
72086;BME280;64750;52.134;5.424;2022-12-18T06:28:03;102952.00;;;2.15;64.01
72086;BME280;64750;52.134;5.424;2022-12-18T06:30:30;102947.66;;;2.14;63.91
72086;BME280;64750;52.134;5.424;2022-12-18T06:33:00;102957.19;;;2.15;64.02
72086;BME280;64750;52.134;5.424;2022-12-18T06:35:26;102938.16;;;2.13;63.82
72086;BME280;64750;52.134;5.424;2022-12-18T06:37:53;102936.41;;;2.12;63.71
72086;BME280;64750;52.134;5.424;2022-12-18T06:40:20;102938.13;;;2.11;63.75
72086;BME280;64750;52.134;5.424;2022-12-18T06:42:46;102930.34;;;2.11;64.10
72086;BME280;64750;52.134;5.424;2022-12-18T06:45:16;102928.63;;;2.10;63.45
72086;BME280;64750;52.134;5.424;2022-12-18T06:47:42;102932.94;;;2.10;63.33
72086;BME280;64750;52.134;5.424;2022-12-18T06:50:12;102924.28;;;2.09;63.79
72086;BME280;64750;52.134;5.424;2022-12-18T06:52:39;102916.50;;;2.08;64.28
72086;BME280;64750;52.134;5.424;2022-12-18T06:55:07;102913.91;;;2.08;63.79
72086;BME280;64750;52.134;5.424;2022-12-18T06:57:36;102914.75;;;2.07;64.35
72086;BME280;64750;52.134;5.424;2022-12-18T07:00:04;102909.56;;;2.07;63.49
72086;BME280;64750;52.134;5.424;2022-12-18T07:02:31;102909.56;;;2.07;63.63
72086;BME280;64750;52.134;5.424;2022-12-18T07:04:58;102907.81;;;2.06;64.41
72086;BME280;64750;52.134;5.424;2022-12-18T07:07:25;102902.63;;;2.06;63.90
72086;BME280;64750;52.134;5.424;2022-12-18T07:09:52;102900.03;;;2.06;63.88
72086;BME280;64750;52.134;5.424;2022-12-18T07:12:18;102900.03;;;2.06;63.69
72086;BME280;64750;52.134;5.424;2022-12-18T07:14:45;102900.88;;;2.05;64.11
72086;BME280;64750;52.134;5.424;2022-12-18T07:17:12;102895.69;;;2.03;63.36
72086;BME280;64750;52.134;5.424;2022-12-18T07:19:38;102884.47;;;2.03;63.39
72086;BME280;64750;52.134;5.424;2022-12-18T07:22:05;102887.91;;;2.02;64.27
72086;BME280;64750;52.134;5.424;2022-12-18T07:24:34;102898.28;;;2.02;64.22
72086;BME280;64750;52.134;5.424;2022-12-18T07:27:01;102895.69;;;2.02;63.51
72086;BME280;64750;52.134;5.424;2022-12-18T07:29:33;102901.72;;;2.01;63.75
72086;BME280;64750;52.134;5.424;2022-12-18T07:32:04;102887.84;;;1.99;63.57
72086;BME280;64750;52.134;5.424;2022-12-18T07:34:31;102877.47;;;1.99;63.44
72086;BME280;64750;52.134;5.424;2022-12-18T07:36:58;102877.47;;;1.97;63.18
72086;BME280;64750;52.134;5.424;2022-12-18T07:39:25;102870.59;;;1.98;63.83
72086;BME280;64750;52.134;5.424;2022-12-18T07:41:54;102871.44;;;1.96;63.69
72086;BME280;64750;52.134;5.424;2022-12-18T07:44:39;102870.47;;;1.88;62.65
72086;BME280;64750;52.134;5.424;2022-12-18T07:47:06;102862.63;;;1.79;62.19
72086;BME280;64750;52.134;5.424;2022-12-18T07:49:37;102855.63;;;1.72;61.38
72086;BME280;64750;52.134;5.424;2022-12-18T07:52:04;102853.00;;;1.66;61.31
72086;BME280;64750;52.134;5.424;2022-12-18T07:54:30;102852.94;;;1.59;60.68
72086;BME280;64750;52.134;5.424;2022-12-18T07:56:57;102844.25;;;1.54;60.67
72086;BME280;64750;52.134;5.424;2022-12-18T07:59:24;102846.78;;;1.46;60.22
72086;BME280;64750;52.134;5.424;2022-12-18T08:01:50;102849.28;;;1.39;60.48
72086;BME280;64750;52.134;5.424;2022-12-18T08:04:17;102845.78;;;1.34;60.49
72086;BME280;64750;52.134;5.424;2022-12-18T08:06:43;102856.91;;;1.28;60.26
72086;BME280;64750;52.134;5.424;2022-12-18T08:09:13;102837.88;;;1.21;60.54
72086;BME280;64750;52.134;5.424;2022-12-18T08:11:45;102829.16;;;1.14;60.24
72086;BME280;64750;52.134;5.424;2022-12-18T08:14:12;102829.09;;;1.11;59.89
72086;BME280;64750;52.134;5.424;2022-12-18T08:16:38;102824.75;;;1.06;60.15
72086;BME280;64750;52.134;5.424;2022-12-18T08:19:05;102835.91;;;1.02;60.20
72086;BME280;64750;52.134;5.424;2022-12-18T08:21:32;102845.34;;;0.96;60.33
72086;BME280;64750;52.134;5.424;2022-12-18T08:24:00;102843.53;;;0.91;60.21
72086;BME280;64750;52.134;5.424;2022-12-18T08:26:30;102843.44;;;0.85;60.36
72086;BME280;64750;52.134;5.424;2022-12-18T08:29:00;102845.16;;;0.81;60.65
72086;BME280;64750;52.134;5.424;2022-12-18T08:31:29;102862.38;;;0.79;60.57
72086;BME280;64750;52.134;5.424;2022-12-18T08:33:58;102872.72;;;0.77;60.51
72086;BME280;64750;52.134;5.424;2022-12-18T08:36:25;102866.69;;;0.78;60.42
72086;BME280;64750;52.134;5.424;2022-12-18T08:38:54;102861.53;;;0.78;60.88
72086;BME280;64750;52.134;5.424;2022-12-18T08:41:26;102868.41;;;0.79;61.16
72086;BME280;64750;52.134;5.424;2022-12-18T08:43:54;102867.56;;;0.79;61.03
72086;BME280;64750;52.134;5.424;2022-12-18T08:46:41;102849.44;;;0.79;61.37
72086;BME280;64750;52.134;5.424;2022-12-18T08:49:09;102841.66;;;0.79;61.75
72086;BME280;64750;52.134;5.424;2022-12-18T08:51:37;102858.06;;;0.79;61.54
72086;BME280;64750;52.134;5.424;2022-12-18T08:54:05;102857.19;;;0.79;61.68
72086;BME280;64750;52.134;5.424;2022-12-18T08:56:34;102849.44;;;0.80;62.06
72086;BME280;64750;52.134;5.424;2022-12-18T08:59:01;102850.34;;;0.81;62.00
72086;BME280;64750;52.134;5.424;2022-12-18T09:01:28;102852.06;;;0.82;61.77
72086;BME280;64750;52.134;5.424;2022-12-18T09:03:55;102867.59;;;0.82;62.45
72086;BME280;64750;52.134;5.424;2022-12-18T09:06:23;102876.25;;;0.84;61.93
72086;BME280;64750;52.134;5.424;2022-12-18T09:08:50;102865.91;;;0.84;62.20
72086;BME280;64750;52.134;5.424;2022-12-18T09:11:23;102865.91;;;0.86;62.08
72086;BME280;64750;52.134;5.424;2022-12-18T09:13:52;102848.69;;;0.86;62.36
72086;BME280;64750;52.134;5.424;2022-12-18T09:16:19;102851.25;;;0.86;62.71
72086;BME280;64750;52.134;5.424;2022-12-18T09:19:04;102855.56;;;0.87;63.01
72086;BME280;64750;52.134;5.424;2022-12-18T09:21:37;102846.13;;;0.89;62.44
72086;BME280;64750;52.134;5.424;2022-12-18T09:24:12;102847.88;;;0.92;62.56
72086;BME280;64750;52.134;5.424;2022-12-18T09:26:39;102853.94;;;0.92;62.91
72086;BME280;64750;52.134;5.424;2022-12-18T09:29:14;102854.78;;;0.93;62.90
72086;BME280;64750;52.134;5.424;2022-12-18T09:31:42;102852.22;;;0.93;62.83
72086;BME280;64750;52.134;5.424;2022-12-18T09:34:08;102855.69;;;0.95;62.96
72086;BME280;64750;52.134;5.424;2022-12-18T09:36:35;102843.59;;;0.95;63.12
72086;BME280;64750;52.134;5.424;2022-12-18T09:39:04;102835.00;;;0.96;63.44
72086;BME280;64750;52.134;5.424;2022-12-18T09:41:54;102829.81;;;0.96;63.46
72086;BME280;64750;52.134;5.424;2022-12-18T09:44:32;102828.97;;;0.97;63.70
72086;BME280;64750;52.134;5.424;2022-12-18T09:47:35;102824.66;;;1.00;63.49
72086;BME280;64750;52.134;5.424;2022-12-18T09:50:29;102820.38;;;1.02;63.61
72086;BME280;64750;52.134;5.424;2022-12-18T09:52:59;102818.66;;;1.02;63.61
72086;BME280;64750;52.134;5.424;2022-12-18T09:55:35;102804.84;;;1.03;63.97
72086;BME280;64750;52.134;5.424;2022-12-18T09:58:14;102795.41;;;1.07;63.97
72086;BME280;64750;52.134;5.424;2022-12-18T10:00:42;102800.59;;;1.07;63.58
72086;BME280;64750;52.134;5.424;2022-12-18T10:03:12;102807.47;;;1.05;63.65
72086;BME280;64750;52.134;5.424;2022-12-18T10:05:59;102801.41;;;1.03;63.47
72086;BME280;64750;52.134;5.424;2022-12-18T10:08:50;102805.69;;;1.01;63.32
72086;BME280;64750;52.134;5.424;2022-12-18T10:13:59;102791.84;;;0.98;62.95
72086;BME280;64750;52.134;5.424;2022-12-18T10:16:40;102792.72;;;0.99;63.31
72086;BME280;64750;52.134;5.424;2022-12-18T10:19:24;102784.94;;;0.97;63.01
72086;BME280;64750;52.134;5.424;2022-12-18T10:28:11;102791.81;;;0.92;63.35
72086;BME280;64750;52.134;5.424;2022-12-18T10:30:40;102796.09;;;0.90;63.42
72086;BME280;64750;52.134;5.424;2022-12-18T10:33:12;102798.66;;;0.90;63.68
72086;BME280;64750;52.134;5.424;2022-12-18T10:35:55;102777.13;;;0.91;63.65
72086;BME280;64750;52.134;5.424;2022-12-18T10:40:56;102775.38;;;0.90;64.20
72086;BME280;64750;52.134;5.424;2022-12-18T10:43:33;102789.16;;;0.88;64.08
72086;BME280;64750;52.134;5.424;2022-12-18T10:51:28;102762.41;;;0.89;64.11
72086;BME280;64750;52.134;5.424;2022-12-18T10:54:18;102755.50;;;0.89;63.68
72086;BME280;64750;52.134;5.424;2022-12-18T10:56:48;102758.06;;;0.88;64.43
72086;BME280;64750;52.134;5.424;2022-12-18T10:59:18;102760.69;;;0.89;64.13
72086;BME280;64750;52.134;5.424;2022-12-18T11:01:58;102746.00;;;0.88;64.27
72086;BME280;64750;52.134;5.424;2022-12-18T11:04:30;102744.31;;;0.90;64.22
72086;BME280;64750;52.134;5.424;2022-12-18T11:07:07;102739.97;;;0.89;63.94
72086;BME280;64750;52.134;5.424;2022-12-18T11:09:39;102738.22;;;0.88;63.89
72086;BME280;64750;52.134;5.424;2022-12-18T11:12:19;102735.63;;;0.85;64.19
72086;BME280;64750;52.134;5.424;2022-12-18T11:14:52;102730.44;;;0.84;64.69
72086;BME280;64750;52.134;5.424;2022-12-18T11:17:31;102726.94;;;0.83;64.49
72086;BME280;64750;52.134;5.424;2022-12-18T11:20:04;102720.06;;;0.84;64.85
72086;BME280;64750;52.134;5.424;2022-12-18T11:22:36;102718.34;;;0.84;64.88
72086;BME280;64750;52.134;5.424;2022-12-18T11:25:07;102714.09;;;0.89;64.82
72086;BME280;64750;52.134;5.424;2022-12-18T11:28:25;102701.19;;;0.92;64.91
72086;BME280;64750;52.134;5.424;2022-12-18T11:31:17;102696.00;;;0.94;65.19
72086;BME280;64750;52.134;5.424;2022-12-18T11:34:12;102697.78;;;0.98;65.19
72086;BME280;64750;52.134;5.424;2022-12-18T11:37:03;102706.44;;;1.00;65.00
72086;BME280;64750;52.134;5.424;2022-12-18T11:39:41;102711.66;;;1.05;64.96
72086;BME280;64750;52.134;5.424;2022-12-18T11:42:21;102705.63;;;1.06;64.82
72086;BME280;64750;52.134;5.424;2022-12-18T11:48:09;102703.09;;;1.12;65.14
72086;BME280;64750;52.134;5.424;2022-12-18T11:50:51;102701.38;;;1.14;65.48
72086;BME280;64750;52.134;5.424;2022-12-18T11:53:25;102694.47;;;1.14;64.98
72086;BME280;64750;52.134;5.424;2022-12-18T11:56:16;102684.97;;;1.15;65.33
72086;BME280;64750;52.134;5.424;2022-12-18T12:02:02;102674.66;;;1.18;65.44
72086;BME280;64750;52.134;5.424;2022-12-18T12:04:46;102673.81;;;1.21;65.40
72086;BME280;64750;52.134;5.424;2022-12-18T12:12:52;102651.41;;;1.29;65.48
72086;BME280;64750;52.134;5.424;2022-12-18T12:15:44;102644.56;;;1.33;65.52
72086;BME280;64750;52.134;5.424;2022-12-18T12:18:38;102641.13;;;1.35;65.23
72086;BME280;64750;52.134;5.424;2022-12-18T12:21:35;102635.94;;;1.37;65.83
72086;BME280;64750;52.134;5.424;2022-12-18T12:24:27;102642.03;;;1.42;65.25
72086;BME280;64750;52.134;5.424;2022-12-18T12:38:05;102617.84;;;1.43;65.97
72086;BME280;64750;52.134;5.424;2022-12-18T12:40:48;102617.84;;;1.43;66.26
72086;BME280;64750;52.134;5.424;2022-12-18T12:43:46;102613.56;;;1.46;66.51
72086;BME280;64750;52.134;5.424;2022-12-18T12:46:22;102601.47;;;1.47;66.14
72086;BME280;64750;52.134;5.424;2022-12-18T12:49:02;102602.34;;;1.52;66.02
72086;BME280;64750;52.134;5.424;2022-12-18T12:51:41;102592.88;;;1.54;66.59
72086;BME280;64750;52.134;5.424;2022-12-18T12:54:16;102586.00;;;1.58;66.00
72086;BME280;64750;52.134;5.424;2022-12-18T12:57:00;102581.66;;;1.58;66.18
72086;BME280;64750;52.134;5.424;2022-12-18T13:02:33;102580.84;;;1.66;66.27
72086;BME280;64750;52.134;5.424;2022-12-18T13:07:42;102579.09;;;1.69;66.63
72086;BME280;64750;52.134;5.424;2022-12-18T13:10:26;102580.84;;;1.72;66.60
72086;BME280;64750;52.134;5.424;2022-12-18T13:15:44;102586.91;;;1.74;66.85
72086;BME280;64750;52.134;5.424;2022-12-18T13:18:17;102580.03;;;1.76;66.68
72086;BME280;64750;52.134;5.424;2022-12-18T13:20:45;102581.78;;;1.77;66.21
72086;BME280;64750;52.134;5.424;2022-12-18T13:28:55;102579.19;;;1.82;66.58
72086;BME280;64750;52.134;5.424;2022-12-18T13:34:28;102567.09;;;1.85;66.71
72086;BME280;64750;52.134;5.424;2022-12-18T13:45:50;102548.06;;;1.82;66.60
72086;BME280;64750;52.134;5.424;2022-12-18T13:48:26;102540.28;;;1.80;66.49
72086;BME280;64750;52.134;5.424;2022-12-18T13:53:33;102523.03;;;1.87;66.38
72086;BME280;64750;52.134;5.424;2022-12-18T13:56:01;102522.16;;;1.88;66.99
72086;BME280;64750;52.134;5.424;2022-12-18T13:58:28;102518.69;;;1.86;66.56
72086;BME280;64750;52.134;5.424;2022-12-18T14:00:55;102525.63;;;1.85;66.31
72086;BME280;64750;52.134;5.424;2022-12-18T14:03:28;102514.38;;;1.88;66.15
72086;BME280;64750;52.134;5.424;2022-12-18T14:05:59;102521.28;;;1.84;66.55
72086;BME280;64750;52.134;5.424;2022-12-18T14:08:32;102518.69;;;1.86;66.48
72086;BME280;64750;52.134;5.424;2022-12-18T14:11:00;102505.75;;;1.90;66.74
72086;BME280;64750;52.134;5.424;2022-12-18T14:13:33;102507.50;;;1.91;66.73
72086;BME280;64750;52.134;5.424;2022-12-18T14:16:04;102509.19;;;1.89;66.36
72086;BME280;64750;52.134;5.424;2022-12-18T14:18:53;102489.34;;;1.90;66.73
72086;BME280;64750;52.134;5.424;2022-12-18T14:21:30;102500.56;;;1.93;66.50
72086;BME280;64750;52.134;5.424;2022-12-18T14:24:16;102491.94;;;1.94;66.26
72086;BME280;64750;52.134;5.424;2022-12-18T14:26:46;102489.34;;;1.94;66.54
72086;BME280;64750;52.134;5.424;2022-12-18T14:29:30;102482.44;;;1.96;66.09
72086;BME280;64750;52.134;5.424;2022-12-18T14:32:38;102479.84;;;1.96;66.39
72086;BME280;64750;52.134;5.424;2022-12-18T14:35:12;102469.47;;;1.96;66.19
72086;BME280;64750;52.134;5.424;2022-12-18T14:37:39;102472.91;;;1.95;65.89
72086;BME280;64750;52.134;5.424;2022-12-18T14:40:12;102469.47;;;2.00;66.14
72086;BME280;64750;52.134;5.424;2022-12-18T14:42:39;102469.50;;;2.03;66.15
72086;BME280;64750;52.134;5.424;2022-12-18T14:45:35;102475.53;;;2.09;65.87
72086;BME280;64750;52.134;5.424;2022-12-18T14:50:37;102462.59;;;2.08;65.98
72086;BME280;64750;52.134;5.424;2022-12-18T14:53:20;102448.75;;;2.10;66.33